TimeAKST,TemperatureF,Dew PointF,Humidity,Sea Level PressureIn,VisibilityMPH,Wind Direction,Wind SpeedMPH,Gust SpeedMPH,PrecipitationIn,Events,Conditions,WindDirDegrees,DateUTC
12:01 AM,21.9,21.0,96,29.54,0.8,East,17.3,28.8,0.00,Snow,Light Snow,80,2013-01-13 09:01:00
12:26 AM,21.2,21.2,100,29.39,1.2,East,19.6,29.9,0.00,Snow,Light Snow,80,2013-01-13 09:26:00
12:47 AM,21.2,21.2,100,29.38,1.0,East,24.2,33.4,0.00,Snow,Light Snow,90,2013-01-13 09:47:00
12:54 AM,21.2,21.2,100,29.38,1.5,East,26.5,35.7,0.00,Snow,Light Snow,90,2013-01-13 09:54:00
1:01 AM,21.9,21.0,96,29.50,1.8,East,24.2,35.7,0.00,Snow,Light Snow,90,2013-01-13 10:01:00
1:04 AM,21.2,21.2,100,29.37,2.0,East,24.2,35.7,0.00,Snow,Light Snow,90,2013-01-13 10:04:00
1:35 AM,23.0,21.2,93,29.37,1.8,East,18.4,26.5,0.00,Snow,Light Snow,90,2013-01-13 10:35:00
2:01 AM,23.0,21.0,92,29.50,1.5,East,17.3,26.5,0.00,Snow,Light Snow,90,2013-01-13 11:01:00
2:35 AM,23.0,21.2,93,29.36,1.0,East,16.1,24.2,0.00,Snow,Light Snow,90,2013-01-13 11:35:00
2:38 AM,23.0,21.2,93,29.36,0.8,East,17.3,24.2,0.00,Snow,Light Snow,90,2013-01-13 11:38:00
3:01 AM,23.0,21.9,96,29.48,0.8,East,11.5,28.8,0.00,Snow,Light Snow,100,2013-01-13 12:01:00
3:30 AM,23.0,21.2,93,29.35,1.0,East,17.3,26.5,0.00,Snow,Light Snow,100,2013-01-13 12:30:00
4:01 AM,23.0,21.9,96,29.49,1.0,East,13.8,24.2,0.00,Snow,Light Snow,100,2013-01-13 13:01:00
4:09 AM,23.0,21.2,93,29.36,1.8,East,12.7,24.2,0.00,Snow,Light Snow,100,2013-01-13 13:09:00
4:29 AM,24.8,23.0,93,29.36,2.0,East,16.1,24.2,0.00,Snow,Light Snow,100,2013-01-13 13:29:00
4:36 AM,24.8,23.0,93,29.36,2.5,East,18.4,29.9,0.00,Snow,Light Snow,100,2013-01-13 13:36:00
4:48 AM,24.8,23.0,93,29.36,3.0,East,12.7,24.2,0.00,Snow,Light Snow,90,2013-01-13 13:48:00
5:01 AM,24.1,21.9,91,29.48,4.0,East,23.0,28.8,0.00,Snow,Light Snow,100,2013-01-13 14:01:00
6:01 AM,24.1,23.0,96,29.48,9.0,East,18.4,26.5,0.00,Snow,Light Snow,100,2013-01-13 15:01:00
7:01 AM,25.0,23.0,92,29.49,8.0,East,19.6,31.1,0.00,Snow,Light Snow,100,2013-01-13 16:01:00
8:01 AM,26.1,24.1,92,29.48,7.0,East,16.1,25.3,0.00,Snow,Light Snow,100,2013-01-13 17:01:00
8:10 AM,26.6,24.8,93,29.36,1.8,East,15.0,21.9,0.00,Snow,Light Snow,100,2013-01-13 17:10:00
8:15 AM,26.6,24.8,93,29.36,1.0,East,13.8,21.9,0.00,Snow,Light Snow,100,2013-01-13 17:15:00
8:21 AM,24.8,24.8,100,29.36,1.0,East,13.8,24.2,0.00,Snow,Light Snow,100,2013-01-13 17:21:00
8:45 AM,26.6,24.8,93,29.36,2.0,East,13.8,23.0,0.00,Snow,Light Snow,100,2013-01-13 17:45:00
8:56 AM,24.8,24.8,100,29.36,4.0,East,13.8,23.0,0.00,Snow,Light Snow,100,2013-01-13 17:56:00
9:01 AM,25.0,24.1,96,29.49,4.0,East,15.0,23.0,0.00,Snow,Light Snow,100,2013-01-13 18:01:00
10:01 AM,24.8,24.8,100,29.37,9.0,ESE,19.6,26.5,N/A,Snow,Light Snow,110,2013-01-13 19:01:00
11:01 AM,26.1,25.0,96,29.38,9.0,East,18.4,27.6,N/A,Snow,Light Snow,100,2013-01-13 20:01:00
12:01 PM,26.1,25.0,96,29.39,5.0,East,16.1,24.2,0.00,Snow,Light Snow,90,2013-01-13 21:01:00
12:22 PM,26.6,24.8,93,29.38,3.0,East,15.0,23.0,0.00,Snow,Light Snow,100,2013-01-13 21:22:00
1:01 PM,26.1,25.0,96,29.39,9.0,East,16.1,27.6,0.00,,Overcast,100,2013-01-13 22:01:00
1:34 PM,26.6,24.8,93,29.39,7.0,East,13.8,21.9,0.00,Snow,Light Snow,100,2013-01-13 22:34:00
1:59 PM,26.6,24.8,93,29.39,2.5,East,16.1,20.7,0.00,Snow,Light Snow,100,2013-01-13 22:59:00
2:01 PM,27.0,25.0,92,29.39,2.0,East,12.7,20.7,0.00,Snow,Light Snow,100,2013-01-13 23:01:00
2:14 PM,26.6,26.6,100,29.38,3.0,East,15.0,23.0,0.00,Snow,Light Snow,100,2013-01-13 23:14:00
3:01 PM,28.0,27.0,96,29.39,4.0,East,15.0,21.9,0.00,Snow,Light Snow,100,2013-01-14 00:01:00
3:34 PM,28.4,26.6,93,29.39,2.5,East,16.1,23.0,0.00,Snow,Light Snow,100,2013-01-14 00:34:00
4:01 PM,28.4,26.6,93,29.39,1.8,East,15.0,21.9,0.00,Snow,Light Snow,100,2013-01-14 01:01:00
4:19 PM,28.4,26.6,93,29.39,2.5,East,12.7,-,0.00,Snow,Light Snow,100,2013-01-14 01:19:00
4:32 PM,28.4,26.6,93,29.38,3.0,East,16.1,23.0,0.00,Snow,Light Snow,100,2013-01-14 01:32:00
4:44 PM,28.4,26.6,93,29.39,2.5,East,13.8,20.7,0.00,Snow,Light Snow,100,2013-01-14 01:44:00
5:01 PM,28.4,26.6,93,29.39,3.0,East,15.0,20.7,0.00,Snow,Light Snow,100,2013-01-14 02:01:00
6:01 PM,28.9,28.0,96,29.40,6.0,East,11.5,-,0.00,Snow,Light Snow,90,2013-01-14 03:01:00
7:01 PM,28.9,28.0,96,29.41,5.0,East,10.4,17.3,0.00,Snow,Light Snow,100,2013-01-14 04:01:00
8:01 PM,30.0,30.0,100,29.40,6.0,East,10.4,-,0.00,Snow,Light Snow,100,2013-01-14 05:01:00
8:54 PM,30.2,30.2,100,29.40,9.0,East,11.5,-,0.00,Snow,Light Snow,100,2013-01-14 05:54:00
9:01 PM,30.9,30.0,96,29.41,9.0,East,10.4,-,0.00,Snow,Light Snow,100,2013-01-14 06:01:00
10:01 PM,30.9,30.0,96,29.53,9.0,East,12.7,-,0.00,Snow,Light Snow,100,2013-01-14 07:01:00
11:01 PM,32.0,30.0,92,29.52,10.0,East,10.4,18.4,0.00,,Overcast,100,2013-01-14 08:01:00